Aviation Digital Data Service (ADDS)

Output produced by METARs form (2255 UTC 20 January 2019)
found at http://www.aviationweather.gov/metar/data/
 
METAR text: ZSOF 202200Z 22001MPS 4000 BR NSC M00/M03 Q1030 NOSIG
Conditions at: ZSOF (HEFEI/XINGIAO , CN) observed 2200 UTC 20 January 2019
Temperature: 0.0°C (32°F)
Dewpoint: -3.0°C (27°F) [RH = 80%]
Pressure (altimeter): 30.41 inches Hg (1030.0 mb)
Winds: from the SW (220 degrees) at 2 MPH (2 knots; 1.0 m/s)
Visibility: 2.49 miles (4.01 km)
Ceiling: at least 12,000 feet AGL
Clouds: sky clear below 12,000 feet AGL
Weather: BR  (mist)

METAR text: ZSOF 202100Z 00000MPS 3600 BR NSC M01/M03 Q1030 NOSIG
Conditions at: ZSOF (HEFEI/XINGIAO , CN) observed 2100 UTC 20 January 2019
Temperature: -1.0°C (30°F)
Dewpoint: -3.0°C (27°F) [RH = 86%]
Pressure (altimeter): 30.41 inches Hg (1030.0 mb)
Winds: calm
Visibility: 2.24 miles (3.60 km)
Ceiling: at least 12,000 feet AGL
Clouds: sky clear below 12,000 feet AGL
Weather: BR  (mist)

METAR text: ZSOF 202000Z 26003MPS 4000 BR NSC M01/M04 Q1031 NOSIG
Conditions at: ZSOF (HEFEI/XINGIAO , CN) observed 2000 UTC 20 January 2019
Temperature: -1.0°C (30°F)
Dewpoint: -4.0°C (25°F) [RH = 80%]
Pressure (altimeter): 30.44 inches Hg (1031.0 mb)
Winds: from the W (260 degrees) at 7 MPH (6 knots; 3.1 m/s)
Visibility: 2.49 miles (4.01 km)
Ceiling: at least 12,000 feet AGL
Clouds: sky clear below 12,000 feet AGL
Weather: BR  (mist)

METAR text: ZSOF 201900Z 30002MPS 4500 HZ NSC 00/M05 Q1031 NOSIG
Conditions at: ZSOF (HEFEI/XINGIAO , CN) observed 1900 UTC 20 January 2019
Temperature: 0.0°C (32°F)
Dewpoint: -5.0°C (23°F) [RH = 69%]
Pressure (altimeter): 30.44 inches Hg (1031.0 mb)
Winds: from the WNW (300 degrees) at 5 MPH (4 knots; 2.1 m/s)
Visibility: 2.80 miles (4.51 km)
Ceiling: at least 12,000 feet AGL
Clouds: sky clear below 12,000 feet AGL
Weather: HZ  (haze)

METAR text: ZSOF 201800Z 34001MPS 4400 BR NSC M01/M04 Q1032 NOSIG
Conditions at: ZSOF (HEFEI/XINGIAO , CN) observed 1800 UTC 20 January 2019
Temperature: -1.0°C (30°F)
Dewpoint: -4.0°C (25°F) [RH = 80%]
Pressure (altimeter): 30.47 inches Hg (1032.0 mb)
Winds: from the NNW (340 degrees) at 2 MPH (2 knots; 1.0 m/s)
Visibility: 2.73 miles (4.39 km)
Ceiling: at least 12,000 feet AGL
Clouds: sky clear below 12,000 feet AGL
Weather: BR  (mist)

METAR text: ZSOF 201700Z 32001MPS 4500 BR NSC M01/M04 Q1032 NOSIG
Conditions at: ZSOF (HEFEI/XINGIAO , CN) observed 1700 UTC 20 January 2019
Temperature: -1.0°C (30°F)
Dewpoint: -4.0°C (25°F) [RH = 80%]
Pressure (altimeter): 30.47 inches Hg (1032.0 mb)
Winds: from the NW (320 degrees) at 2 MPH (2 knots; 1.0 m/s)
Visibility: 2.80 miles (4.51 km)
Ceiling: at least 12,000 feet AGL
Clouds: sky clear below 12,000 feet AGL
Weather: BR  (mist)

METAR text: ZSOF 201600Z 33003MPS 4500 BR NSC M01/M04 Q1033 NOSIG
Conditions at: ZSOF (HEFEI/XINGIAO , CN) observed 1600 UTC 20 January 2019
Temperature: -1.0°C (30°F)
Dewpoint: -4.0°C (25°F) [RH = 80%]
Pressure (altimeter): 30.50 inches Hg (1033.0 mb)
Winds: from the NNW (330 degrees) at 7 MPH (6 knots; 3.1 m/s)
Visibility: 2.80 miles (4.51 km)
Ceiling: at least 12,000 feet AGL
Clouds: sky clear below 12,000 feet AGL
Weather: BR  (mist)

METAR text: ZSOF 201500Z 29001MPS 4500 HZ NSC 02/M05 Q1033 NOSIG
Conditions at: ZSOF (HEFEI/XINGIAO , CN) observed 1500 UTC 20 January 2019
Temperature: 2.0°C (36°F)
Dewpoint: -5.0°C (23°F) [RH = 60%]
Pressure (altimeter): 30.50 inches Hg (1033.0 mb)
Winds: from the WNW (290 degrees) at 2 MPH (2 knots; 1.0 m/s)
Visibility: 2.80 miles (4.51 km)
Ceiling: at least 12,000 feet AGL
Clouds: sky clear below 12,000 feet AGL
Weather: HZ  (haze)

METAR text: ZSOF 201400Z 33001MPS 4500 HZ NSC 02/M04 Q1033 NOSIG
Conditions at: ZSOF (HEFEI/XINGIAO , CN) observed 1400 UTC 20 January 2019
Temperature: 2.0°C (36°F)
Dewpoint: -4.0°C (25°F) [RH = 64%]
Pressure (altimeter): 30.50 inches Hg (1033.0 mb)
Winds: from the NNW (330 degrees) at 2 MPH (2 knots; 1.0 m/s)
Visibility: 2.80 miles (4.51 km)
Ceiling: at least 12,000 feet AGL
Clouds: sky clear below 12,000 feet AGL
Weather: HZ  (haze)

METAR text: ZSOF 201300Z 35001MPS 4500 HZ NSC 02/M04 Q1033 NOSIG
Conditions at: ZSOF (HEFEI/XINGIAO , CN) observed 1300 UTC 20 January 2019
Temperature: 2.0°C (36°F)
Dewpoint: -4.0°C (25°F) [RH = 64%]
Pressure (altimeter): 30.50 inches Hg (1033.0 mb)
Winds: from the N (350 degrees) at 2 MPH (2 knots; 1.0 m/s)
Visibility: 2.80 miles (4.51 km)
Ceiling: at least 12,000 feet AGL
Clouds: sky clear below 12,000 feet AGL
Weather: HZ  (haze)

METAR text: ZSOF 201200Z 34002MPS 4500 HZ NSC 02/M04 Q1033 NOSIG
Conditions at: ZSOF (HEFEI/XINGIAO , CN) observed 1200 UTC 20 January 2019
Temperature: 2.0°C (36°F)
Dewpoint: -4.0°C (25°F) [RH = 64%]
Pressure (altimeter): 30.50 inches Hg (1033.0 mb)
Winds: from the NNW (340 degrees) at 5 MPH (4 knots; 2.1 m/s)
Visibility: 2.80 miles (4.51 km)
Ceiling: at least 12,000 feet AGL
Clouds: sky clear below 12,000 feet AGL
Weather: HZ  (haze)

METAR text: ZSOF 201100Z 35002MPS 5000 HZ NSC 03/M04 Q1032 NOSIG
Conditions at: ZSOF (HEFEI/XINGIAO , CN) observed 1100 UTC 20 January 2019
Temperature: 3.0°C (37°F)
Dewpoint: -4.0°C (25°F) [RH = 60%]
Pressure (altimeter): 30.47 inches Hg (1032.0 mb)
Winds: from the N (350 degrees) at 5 MPH (4 knots; 2.1 m/s)
Visibility: 3 miles ( 5 km)
Ceiling: at least 12,000 feet AGL
Clouds: sky clear below 12,000 feet AGL
Weather: HZ  (haze)

METAR text: ZSOF 201000Z 33002MPS 4000 HZ NSC 04/M05 Q1031 NOSIG
Conditions at: ZSOF (HEFEI/XINGIAO , CN) observed 1000 UTC 20 January 2019
Temperature: 4.0°C (39°F)
Dewpoint: -5.0°C (23°F) [RH = 52%]
Pressure (altimeter): 30.44 inches Hg (1031.0 mb)
Winds: from the NNW (330 degrees) at 5 MPH (4 knots; 2.1 m/s)
Visibility: 2.49 miles (4.01 km)
Ceiling: at least 12,000 feet AGL
Clouds: sky clear below 12,000 feet AGL
Weather: HZ  (haze)

METAR text: ZSOF 200900Z 35004MPS 4000 HZ NSC 05/M05 Q1031 NOSIG
Conditions at: ZSOF (HEFEI/XINGIAO , CN) observed 0900 UTC 20 January 2019
Temperature: 5.0°C (41°F)
Dewpoint: -5.0°C (23°F) [RH = 48%]
Pressure (altimeter): 30.44 inches Hg (1031.0 mb)
Winds: from the N (350 degrees) at 9 MPH (8 knots; 4.1 m/s)
Visibility: 2.49 miles (4.01 km)
Ceiling: at least 12,000 feet AGL
Clouds: sky clear below 12,000 feet AGL
Weather: HZ  (haze)

METAR text: ZSOF 200800Z 35005MPS 4500 HZ NSC 07/M06 Q1031 NOSIG
Conditions at: ZSOF (HEFEI/XINGIAO , CN) observed 0800 UTC 20 January 2019
Temperature: 7.0°C (45°F)
Dewpoint: -6.0°C (21°F) [RH = 39%]
Pressure (altimeter): 30.44 inches Hg (1031.0 mb)
Winds: from the N (350 degrees) at 12 MPH (10 knots; 5.1 m/s)
Visibility: 2.80 miles (4.51 km)
Ceiling: at least 12,000 feet AGL
Clouds: sky clear below 12,000 feet AGL
Weather: HZ  (haze)

METAR text: ZSOF 200700Z 33005MPS 290V360 3500 HZ NSC 07/M05 Q1031 NOSIG
Conditions at: ZSOF (HEFEI/XINGIAO , CN) observed 0700 UTC 20 January 2019
Temperature: 7.0°C (45°F)
Dewpoint: -5.0°C (23°F) [RH = 42%]
Pressure (altimeter): 30.44 inches Hg (1031.0 mb)
Winds: from the NNW (330 degrees) at 12 MPH (10 knots; 5.1 m/s)
Visibility: 2.17 miles (3.49 km)
Ceiling: at least 12,000 feet AGL
Clouds: sky clear below 12,000 feet AGL
Weather: HZ  (haze)

METAR text: ZSOF 200600Z 01003MPS 320V030 3000 HZ NSC 06/M03 Q1031 NOSIG
Conditions at: ZSOF (HEFEI/XINGIAO , CN) observed 0600 UTC 20 January 2019
Temperature: 6.0°C (43°F)
Dewpoint: -3.0°C (27°F) [RH = 52%]
Pressure (altimeter): 30.44 inches Hg (1031.0 mb)
Winds: from the N (10 degrees) at 7 MPH (6 knots; 3.1 m/s)
Visibility: 1.86 miles (2.99 km)
Ceiling: at least 12,000 feet AGL
Clouds: sky clear below 12,000 feet AGL
Weather: HZ  (haze)

METAR text: ZSOF 200500Z 35003MPS 320V020 2400 HZ NSC 06/M02 Q1032 BECMG AT0600 3000
Conditions at: ZSOF (HEFEI/XINGIAO , CN) observed 0500 UTC 20 January 2019
Temperature: 6.0°C (43°F)
Dewpoint: -2.0°C (28°F) [RH = 56%]
Pressure (altimeter): 30.47 inches Hg (1032.0 mb)
Winds: from the N (350 degrees) at 7 MPH (6 knots; 3.1 m/s)
Visibility: 1.49 miles (2.40 km)
Ceiling: at least 12,000 feet AGL
Clouds: sky clear below 12,000 feet AGL
Weather: HZ  (haze)

METAR text: ZSOF 200400Z 34004MPS 310V010 2000 R33/1400U HZ NSC 04/M00 Q1032 BECMG AT0530 3000
Conditions at: ZSOF (HEFEI/XINGIAO , CN) observed 0400 UTC 20 January 2019
Temperature: 4.0°C (39°F)
Dewpoint: 0.0°C (32°F) [RH = 75%]
Pressure (altimeter): 30.47 inches Hg (1032.0 mb)
Winds: from the NNW (340 degrees) at 9 MPH (8 knots; 4.1 m/s)
Visibility: 1.24 miles (2.00 km)
Ceiling: at least 12,000 feet AGL
Clouds: sky clear below 12,000 feet AGL
Weather: HZ  (haze)

METAR text: ZSOF 200300Z 35003MPS 300V010 1900 R33/1300D HZ NSC 03/M01 Q1032 NOSIG
Conditions at: ZSOF (HEFEI/XINGIAO , CN) observed 0300 UTC 20 January 2019
Temperature: 3.0°C (37°F)
Dewpoint: -1.0°C (30°F) [RH = 75%]
Pressure (altimeter): 30.47 inches Hg (1032.0 mb)
Winds: from the N (350 degrees) at 7 MPH (6 knots; 3.1 m/s)
Visibility: 1.18 miles (1.90 km)
Ceiling: at least 12,000 feet AGL
Clouds: sky clear below 12,000 feet AGL
Weather: HZ  (haze)

METAR text: ZSOF 200200Z 35002MPS 280V040 1800 R33/1300N BR NSC 03/M01 Q1032 BECMG AT0330 3000
Conditions at: ZSOF (HEFEI/XINGIAO , CN) observed 0200 UTC 20 January 2019
Temperature: 3.0°C (37°F)
Dewpoint: -1.0°C (30°F) [RH = 75%]
Pressure (altimeter): 30.47 inches Hg (1032.0 mb)
Winds: from the N (350 degrees) at 5 MPH (4 knots; 2.1 m/s)
Visibility: 1.12 miles (1.80 km)
Ceiling: at least 12,000 feet AGL
Clouds: sky clear below 12,000 feet AGL
Weather: BR  (mist)

METAR text: ZSOF 200100Z 33003MPS 1600 R33/1200N BR NSC 02/M01 Q1031 BECMG AT0240 3000
Conditions at: ZSOF (HEFEI/XINGIAO , CN) observed 0100 UTC 20 January 2019
Temperature: 2.0°C (36°F)
Dewpoint: -1.0°C (30°F) [RH = 80%]
Pressure (altimeter): 30.44 inches Hg (1031.0 mb)
Winds: from the NNW (330 degrees) at 7 MPH (6 knots; 3.1 m/s)
Visibility: 0.99 miles (1.59 km)
Ceiling: at least 12,000 feet AGL
Clouds: sky clear below 12,000 feet AGL
Weather: BR  (mist)

METAR text: ZSOF 200000Z 34002MPS 1300 R33/1300N BR NSC 01/M01 Q1030 BECMG AT0100 1500
Conditions at: ZSOF (HEFEI/XINGIAO , CN) observed 0000 UTC 20 January 2019
Temperature: 1.0°C (34°F)
Dewpoint: -1.0°C (30°F) [RH = 86%]
Pressure (altimeter): 30.41 inches Hg (1030.0 mb)
Winds: from the NNW (340 degrees) at 5 MPH (4 knots; 2.1 m/s)
Visibility: 0.81 miles (1.30 km)
Ceiling: at least 12,000 feet AGL
Clouds: sky clear below 12,000 feet AGL
Weather: BR  (mist)

METAR text: ZSOF 192300Z 32003MPS 1600 BR NSC 02/M00 Q1030 NOSIG
Conditions at: ZSOF (HEFEI/XINGIAO , CN) observed 2300 UTC 19 January 2019
Temperature: 2.0°C (36°F)
Dewpoint: 0.0°C (32°F) [RH = 87%]
Pressure (altimeter): 30.41 inches Hg (1030.0 mb)
Winds: from the NW (320 degrees) at 7 MPH (6 knots; 3.1 m/s)
Visibility: 0.99 miles (1.59 km)
Ceiling: at least 12,000 feet AGL
Clouds: sky clear below 12,000 feet AGL
Weather: BR  (mist)

METAR text: ZSOF 192200Z 32005MPS 1600 BR NSC 02/00 Q1030 NOSIG
Conditions at: ZSOF (HEFEI/XINGIAO , CN) observed 2200 UTC 19 January 2019
Temperature: 2.0°C (36°F)
Dewpoint: 0.0°C (32°F) [RH = 87%]
Pressure (altimeter): 30.41 inches Hg (1030.0 mb)
Winds: from the NW (320 degrees) at 12 MPH (10 knots; 5.1 m/s)
Visibility: 0.99 miles (1.59 km)
Ceiling: at least 12,000 feet AGL
Clouds: sky clear below 12,000 feet AGL
Weather: BR  (mist)

METAR text: ZSOF 192100Z 32004MPS 1600 BR NSC 02/01 Q1029 NOSIG
Conditions at: ZSOF (HEFEI/XINGIAO , CN) observed 2100 UTC 19 January 2019
Temperature: 2.0°C (36°F)
Dewpoint: 1.0°C (34°F) [RH = 93%]
Pressure (altimeter): 30.38 inches Hg (1029.0 mb)
Winds: from the NW (320 degrees) at 9 MPH (8 knots; 4.1 m/s)
Visibility: 0.99 miles (1.59 km)
Ceiling: at least 12,000 feet AGL
Clouds: sky clear below 12,000 feet AGL
Weather: BR  (mist)

METAR text: ZSOF 192000Z 32004MPS 1600 BR NSC 03/01 Q1029 NOSIG
Conditions at: ZSOF (HEFEI/XINGIAO , CN) observed 2000 UTC 19 January 2019
Temperature: 3.0°C (37°F)
Dewpoint: 1.0°C (34°F) [RH = 87%]
Pressure (altimeter): 30.38 inches Hg (1029.0 mb)
Winds: from the NW (320 degrees) at 9 MPH (8 knots; 4.1 m/s)
Visibility: 0.99 miles (1.59 km)
Ceiling: at least 12,000 feet AGL
Clouds: sky clear below 12,000 feet AGL
Weather: BR  (mist)

METAR text: ZSOF 191900Z 31004MPS 1800 BR NSC 03/01 Q1029 NOSIG
Conditions at: ZSOF (HEFEI/XINGIAO , CN) observed 1900 UTC 19 January 2019
Temperature: 3.0°C (37°F)
Dewpoint: 1.0°C (34°F) [RH = 87%]
Pressure (altimeter): 30.38 inches Hg (1029.0 mb)
Winds: from the NW (310 degrees) at 9 MPH (8 knots; 4.1 m/s)
Visibility: 1.12 miles (1.80 km)
Ceiling: at least 12,000 feet AGL
Clouds: sky clear below 12,000 feet AGL
Weather: BR  (mist)

METAR text: ZSOF 191800Z 32003MPS 1800 BR NSC 03/01 Q1028 NOSIG
Conditions at: ZSOF (HEFEI/XINGIAO , CN) observed 1800 UTC 19 January 2019
Temperature: 3.0°C (37°F)
Dewpoint: 1.0°C (34°F) [RH = 87%]
Pressure (altimeter): 30.35 inches Hg (1028.0 mb)
Winds: from the NW (320 degrees) at 7 MPH (6 knots; 3.1 m/s)
Visibility: 1.12 miles (1.80 km)
Ceiling: at least 12,000 feet AGL
Clouds: sky clear below 12,000 feet AGL
Weather: BR  (mist)

METAR text: ZSOF 191700Z 32004MPS 1800 BR NSC 03/01 Q1028 NOSIG
Conditions at: ZSOF (HEFEI/XINGIAO , CN) observed 1700 UTC 19 January 2019
Temperature: 3.0°C (37°F)
Dewpoint: 1.0°C (34°F) [RH = 87%]
Pressure (altimeter): 30.35 inches Hg (1028.0 mb)
Winds: from the NW (320 degrees) at 9 MPH (8 knots; 4.1 m/s)
Visibility: 1.12 miles (1.80 km)
Ceiling: at least 12,000 feet AGL
Clouds: sky clear below 12,000 feet AGL
Weather: BR  (mist)

METAR text: ZSOF 191600Z 32003MPS 2000 BR NSC 03/01 Q1028 NOSIG
Conditions at: ZSOF (HEFEI/XINGIAO , CN) observed 1600 UTC 19 January 2019
Temperature: 3.0°C (37°F)
Dewpoint: 1.0°C (34°F) [RH = 87%]
Pressure (altimeter): 30.35 inches Hg (1028.0 mb)
Winds: from the NW (320 degrees) at 7 MPH (6 knots; 3.1 m/s)
Visibility: 1.24 miles (2.00 km)
Ceiling: at least 12,000 feet AGL
Clouds: sky clear below 12,000 feet AGL
Weather: BR  (mist)

METAR text: ZSOF 191500Z 32003MPS 2000 BR NSC 03/01 Q1027 NOSIG
Conditions at: ZSOF (HEFEI/XINGIAO , CN) observed 1500 UTC 19 January 2019
Temperature: 3.0°C (37°F)
Dewpoint: 1.0°C (34°F) [RH = 87%]
Pressure (altimeter): 30.32 inches Hg (1027.0 mb)
Winds: from the NW (320 degrees) at 7 MPH (6 knots; 3.1 m/s)
Visibility: 1.24 miles (2.00 km)
Ceiling: at least 12,000 feet AGL
Clouds: sky clear below 12,000 feet AGL
Weather: BR  (mist)

METAR text: ZSOF 191400Z 31003MPS 2000 BR NSC 04/02 Q1026 NOSIG
Conditions at: ZSOF (HEFEI/XINGIAO , CN) observed 1400 UTC 19 January 2019
Temperature: 4.0°C (39°F)
Dewpoint: 2.0°C (36°F) [RH = 87%]
Pressure (altimeter): 30.30 inches Hg (1026.0 mb)
Winds: from the NW (310 degrees) at 7 MPH (6 knots; 3.1 m/s)
Visibility: 1.24 miles (2.00 km)
Ceiling: at least 12,000 feet AGL
Clouds: sky clear below 12,000 feet AGL
Weather: BR  (mist)

METAR text: ZSOF 191300Z 30003MPS 2000 BR NSC 05/03 Q1025 NOSIG
Conditions at: ZSOF (HEFEI/XINGIAO , CN) observed 1300 UTC 19 January 2019
Temperature: 5.0°C (41°F)
Dewpoint: 3.0°C (37°F) [RH = 87%]
Pressure (altimeter): 30.27 inches Hg (1025.0 mb)
Winds: from the WNW (300 degrees) at 7 MPH (6 knots; 3.1 m/s)
Visibility: 1.24 miles (2.00 km)
Ceiling: at least 12,000 feet AGL
Clouds: sky clear below 12,000 feet AGL
Weather: BR  (mist)

METAR text: ZSOF 191200Z 30002MPS 2000 BR NSC 05/03 Q1025 NOSIG
Conditions at: ZSOF (HEFEI/XINGIAO , CN) observed 1200 UTC 19 January 2019
Temperature: 5.0°C (41°F)
Dewpoint: 3.0°C (37°F) [RH = 87%]
Pressure (altimeter): 30.27 inches Hg (1025.0 mb)
Winds: from the WNW (300 degrees) at 5 MPH (4 knots; 2.1 m/s)
Visibility: 1.24 miles (2.00 km)
Ceiling: at least 12,000 feet AGL
Clouds: sky clear below 12,000 feet AGL
Weather: BR  (mist)

METAR text: ZSOF 191100Z 31003MPS 1600 BR SCT010 05/03 Q1024 NOSIG
Conditions at: ZSOF (HEFEI/XINGIAO , CN) observed 1100 UTC 19 January 2019
Temperature: 5.0°C (41°F)
Dewpoint: 3.0°C (37°F) [RH = 87%]
Pressure (altimeter): 30.24 inches Hg (1024.0 mb)
Winds: from the NW (310 degrees) at 7 MPH (6 knots; 3.1 m/s)
Visibility: 0.99 miles (1.59 km)
Ceiling: at least 12,000 feet AGL
Clouds: scattered clouds at 1000 feet AGL
Weather: BR  (mist)

Forecast for: ZSOF (HEFEI/XINGIAO , CN)
Text: TAF ZSOF 201901Z 2100/2124 28003MPS 3500 BR NSC TX09/2106Z TNM02/22Z
Forecast period: 0000 UTC 21 January 2019 to 0000 UTC 22 January 2019
Forecast type: FROM: standard forecast or significant change
Winds: from the W (280 degrees) at 7 MPH (6 knots; 3.1 m/s)
Visibility: 2.17 miles (3.49 km)
Ceiling: unknown
Clouds: missing
Weather: BR  (mist)